createdAt,value
2022-09-30T00:09:39.581Z,100.00
2022-09-30T00:19:41.974Z,100.00
2022-09-30T00:29:45.558Z,100.00
2022-09-30T00:39:47.999Z,100.00
2022-09-30T00:49:51.974Z,100.00
2022-09-30T00:59:54.683Z,100.00
2022-09-30T01:09:58.380Z,100.00
2022-09-30T01:20:43.062Z,100.00
2022-09-30T01:31:16.346Z,100.00
2022-09-30T01:41:28.573Z,100.00
2022-09-30T01:51:40.218Z,100.00
2022-09-30T02:01:51.151Z,100.00
2022-09-30T02:11:56.822Z,100.00
2022-09-30T02:22:04.176Z,100.00
2022-09-30T02:32:14.313Z,100.00
2022-09-30T02:42:28.876Z,100.00
2022-09-30T02:52:49.208Z,100.00
2022-09-30T03:03:05.595Z,100.00
2022-09-30T03:13:37.334Z,100.00
2022-09-30T03:24:01.178Z,100.00
2022-09-30T03:34:28.113Z,100.00
2022-09-30T03:44:40.566Z,100.00
2022-09-30T03:54:52.142Z,100.00
2022-09-30T04:04:54.486Z,100.00
2022-09-30T04:14:56.770Z,100.00
2022-09-30T04:24:59.064Z,100.00
2022-09-30T04:35:01.558Z,100.00
2022-09-30T04:45:04.278Z,100.00
2022-09-30T04:55:07.273Z,100.00
2022-09-30T05:05:09.966Z,100.00
2022-09-30T05:15:12.981Z,100.00
2022-09-30T05:25:15.913Z,100.00
2022-09-30T05:35:18.341Z,100.00
2022-09-30T05:45:20.652Z,100.00
2022-09-30T05:55:23.349Z,100.00
2022-09-30T06:05:26.232Z,100.00
2022-09-30T06:15:28.853Z,100.00
2022-09-30T06:25:32.409Z,100.00
2022-09-30T06:35:35.146Z,100.00
2022-09-30T06:45:38.552Z,100.00
2022-09-30T06:55:42.232Z,100.00
2022-09-30T07:05:45.036Z,100.00
2022-09-30T07:15:47.957Z,100.00
2022-09-30T07:25:57.142Z,100.00
2022-09-30T07:36:01.829Z,100.00
2022-09-30T07:46:13.720Z,100.00
2022-09-30T07:56:17.721Z,100.00
2022-09-30T08:06:21.782Z,100.00
2022-09-30T08:16:26.601Z,100.00
2022-09-30T08:26:30.290Z,100.00
2022-09-30T08:36:32.831Z,100.00
2022-09-30T08:46:58.256Z,100.00
2022-09-30T08:57:04.399Z,100.00
2022-09-30T09:07:25.963Z,100.00
2022-09-30T09:18:04.330Z,100.00
2022-09-30T09:28:38.505Z,100.00
2022-09-30T09:39:06.977Z,100.00
2022-09-30T09:49:21.407Z,100.00
2022-09-30T09:59:25.929Z,100.00
2022-09-30T10:09:37.050Z,100.00
2022-09-30T10:19:49.403Z,100.00
2022-09-30T10:29:52.950Z,100.00
2022-09-30T10:40:07.622Z,100.00
2022-09-30T10:50:18.093Z,100.00
2022-09-30T11:00:24.359Z,100.00
2022-09-30T11:10:52.351Z,100.00
2022-09-30T11:21:04.062Z,100.00
2022-09-30T11:31:20.750Z,100.00
2022-09-30T11:41:47.168Z,100.00
2022-09-30T11:52:23.090Z,100.00
2022-09-30T12:02:39.805Z,92.77
2022-09-30T12:12:44.554Z,93.14
2022-09-30T12:22:49.490Z,77.60
2022-09-30T12:33:44.368Z,91.27
2022-09-30T12:44:17.032Z,85.35
2022-09-30T12:54:33.949Z,84.82
2022-09-30T13:04:42.187Z,82.18
2022-09-30T13:14:45.391Z,77.74
2022-09-30T13:25:05.974Z,80.61
2022-09-30T13:35:37.879Z,86.37
2022-09-30T13:45:44.173Z,84.67
2022-09-30T13:55:51.294Z,80.11
2022-09-30T14:06:10.524Z,79.02
2022-09-30T14:16:46.413Z,76.54
2022-09-30T14:27:16.192Z,80.21
2022-09-30T14:37:29.215Z,83.63
2022-09-30T14:47:43.849Z,83.42
2022-09-30T14:57:46.684Z,88.91
2022-09-30T15:07:49.877Z,91.83
2022-09-30T15:17:55.766Z,93.05
2022-09-30T15:27:58.818Z,95.87
2022-09-30T15:38:32.884Z,99.15
2022-09-30T15:48:36.531Z,100.00
2022-09-30T15:58:40.408Z,100.00
2022-09-30T16:08:48.106Z,100.00
2022-09-30T16:18:53.329Z,100.00
2022-09-30T16:28:56.953Z,100.00
2022-09-30T16:38:59.469Z,100.00
2022-09-30T16:49:16.591Z,100.00
2022-09-30T16:59:20.071Z,100.00
2022-09-30T17:09:22.753Z,100.00
2022-09-30T17:19:25.466Z,100.00
2022-09-30T17:29:32.331Z,100.00
2022-09-30T17:39:35.965Z,100.00
2022-09-30T17:49:38.979Z,100.00
2022-09-30T17:59:45.854Z,100.00
2022-09-30T18:09:48.656Z,100.00
2022-09-30T18:19:51.259Z,100.00
2022-09-30T18:29:53.892Z,100.00
2022-09-30T18:39:56.341Z,100.00
2022-09-30T18:49:59.436Z,100.00
2022-09-30T19:00:02.675Z,100.00
2022-09-30T19:10:07.174Z,100.00
2022-09-30T19:20:10.407Z,100.00
2022-09-30T19:30:14.853Z,100.00
2022-09-30T19:40:21.908Z,100.00
2022-09-30T19:50:25.274Z,100.00
2022-09-30T20:00:28.075Z,100.00
2022-09-30T20:10:32.859Z,100.00
2022-09-30T20:20:36.077Z,100.00
2022-09-30T20:30:45.834Z,100.00
2022-09-30T20:40:57.416Z,100.00
2022-09-30T20:51:00.531Z,100.00
2022-09-30T21:01:05.826Z,100.00
2022-09-30T21:11:09.161Z,100.00
2022-09-30T21:21:14.204Z,100.00
2022-09-30T21:31:27.132Z,100.00
2022-09-30T21:41:30.437Z,100.00
2022-09-30T21:51:34.924Z,100.00
2022-09-30T22:01:38.217Z,100.00
2022-09-30T22:11:42.695Z,100.00
2022-09-30T22:21:45.288Z,100.00
2022-09-30T22:31:47.695Z,100.00
2022-09-30T22:41:55.030Z,100.00
2022-09-30T22:51:58.074Z,100.00
2022-09-30T23:02:00.580Z,100.00
2022-09-30T23:12:02.936Z,100.00
2022-09-30T23:22:06.399Z,100.00
2022-09-30T23:32:08.905Z,100.00
2022-09-30T23:42:11.190Z,100.00
2022-09-30T23:52:13.945Z,100.00
